createdAt,value
2022-10-07T00:02:00.087Z,11.58
2022-10-07T00:04:34.447Z,11.56
2022-10-07T00:07:03.685Z,11.54
2022-10-07T00:09:32.738Z,11.63
2022-10-07T00:12:02.394Z,11.61
2022-10-07T00:14:33.408Z,11.52
2022-10-07T00:17:04.028Z,11.52
2022-10-07T00:19:33.521Z,11.48
2022-10-07T00:22:02.612Z,11.45
2022-10-07T00:24:36.915Z,11.50
2022-10-07T00:27:06.352Z,11.58
2022-10-07T00:29:37.421Z,11.53
2022-10-07T00:32:12.113Z,11.56
2022-10-07T00:34:41.211Z,11.59
2022-10-07T00:37:10.163Z,11.61
2022-10-07T00:39:39.842Z,11.57
2022-10-07T00:42:18.271Z,11.53
2022-10-07T00:44:49.522Z,11.50
2022-10-07T00:47:26.852Z,11.57
2022-10-07T00:50:05.218Z,11.56
2022-10-07T00:52:39.697Z,11.55
2022-10-07T00:55:12.945Z,11.58
2022-10-07T00:57:48.761Z,11.54
2022-10-07T01:00:21.487Z,11.52
2022-10-07T01:02:50.852Z,11.38
2022-10-07T01:05:20.265Z,11.12
2022-10-07T01:07:59.119Z,11.09
2022-10-07T01:10:39.866Z,10.99
2022-10-07T01:13:15.884Z,10.82
2022-10-07T01:16:00.870Z,10.80
2022-10-07T01:18:38.150Z,10.77
2022-10-07T01:21:17.142Z,10.70
2022-10-07T01:24:05.111Z,10.89
2022-10-07T01:27:00.727Z,10.99
2022-10-07T01:29:41.672Z,10.93
2022-10-07T01:34:53.841Z,10.83
2022-10-07T01:37:26.609Z,10.84
2022-10-07T01:40:07.010Z,10.85
2022-10-07T01:42:43.544Z,10.75
2022-10-07T01:47:51.872Z,10.64
2022-10-07T01:50:25.658Z,10.61
2022-10-07T01:53:19.117Z,10.58
2022-10-07T01:55:58.505Z,10.62
2022-10-07T01:58:47.073Z,10.69
2022-10-07T02:01:23.138Z,10.67
2022-10-07T02:04:10.429Z,10.72
2022-10-07T02:06:48.420Z,10.63
2022-10-07T02:09:28.862Z,10.59
2022-10-07T02:12:06.823Z,10.48
2022-10-07T02:14:47.145Z,10.44
2022-10-07T02:17:22.387Z,10.41
2022-10-07T02:19:59.269Z,10.43
2022-10-07T02:22:30.713Z,10.33
2022-10-07T02:25:03.674Z,10.31
2022-10-07T02:27:37.102Z,10.35
2022-10-07T02:30:16.535Z,10.38
2022-10-07T02:32:50.338Z,10.43
2022-10-07T02:38:05.646Z,10.48
2022-10-07T02:40:38.874Z,10.57
2022-10-07T02:43:13.980Z,10.48
2022-10-07T02:45:57.150Z,10.49
2022-10-07T02:48:30.416Z,10.46
2022-10-07T02:51:05.770Z,10.42
2022-10-07T02:53:37.220Z,10.40
2022-10-07T02:56:16.998Z,10.42
2022-10-07T02:58:48.602Z,10.39
2022-10-07T03:01:25.159Z,10.38
2022-10-07T03:03:54.945Z,10.32
2022-10-07T03:06:29.174Z,10.21
2022-10-07T03:09:00.475Z,10.09
2022-10-07T03:11:36.952Z,10.28
2022-10-07T03:14:06.273Z,10.32
2022-10-07T03:16:37.485Z,10.37
2022-10-07T03:19:07.089Z,10.38
2022-10-07T03:21:53.617Z,10.31
2022-10-07T03:24:28.069Z,10.34
2022-10-07T03:26:57.220Z,10.31
2022-10-07T03:29:26.893Z,10.32
2022-10-07T03:32:03.214Z,10.26
2022-10-07T03:34:35.086Z,10.28
2022-10-07T03:37:10.958Z,10.28
2022-10-07T03:39:40.203Z,10.24
2022-10-07T03:42:15.206Z,10.26
2022-10-07T03:44:45.226Z,10.34
2022-10-07T03:47:17.907Z,10.38
2022-10-07T03:49:52.922Z,10.40
2022-10-07T03:52:22.670Z,10.36
2022-10-07T03:54:52.784Z,10.29
2022-10-07T03:57:35.045Z,10.22
2022-10-07T04:00:09.345Z,10.18
2022-10-07T04:02:45.911Z,10.18
2022-10-07T04:05:16.218Z,10.14
2022-10-07T04:07:51.323Z,10.12
2022-10-07T04:10:22.637Z,10.11
2022-10-07T04:12:56.859Z,10.09
2022-10-07T04:15:26.276Z,10.05
2022-10-07T04:18:04.630Z,10.00
2022-10-07T04:20:33.950Z,9.97
2022-10-07T04:23:03.354Z,9.98
2022-10-07T04:25:37.348Z,10.05
2022-10-07T04:28:18.604Z,10.12
2022-10-07T04:30:51.305Z,10.18
2022-10-07T04:33:26.586Z,10.12
2022-10-07T04:36:06.405Z,10.19
2022-10-07T04:38:39.262Z,10.13
2022-10-07T04:41:14.854Z,10.10
2022-10-07T04:46:19.353Z,10.15
2022-10-07T04:48:55.184Z,10.28
2022-10-07T04:51:27.483Z,10.32
2022-10-07T04:54:00.223Z,10.40
2022-10-07T04:56:41.881Z,10.54
2022-10-07T04:59:13.997Z,10.47
2022-10-07T05:01:44.744Z,10.50
2022-10-07T05:04:16.669Z,10.49
2022-10-07T05:06:51.056Z,10.54
2022-10-07T05:09:20.245Z,10.60
2022-10-07T05:11:50.768Z,10.61
2022-10-07T05:14:22.589Z,10.65
2022-10-07T05:16:53.960Z,10.72
2022-10-07T05:19:28.721Z,10.78
2022-10-07T05:21:58.100Z,10.84
2022-10-07T05:24:28.221Z,10.94
2022-10-07T05:27:13.541Z,11.24
2022-10-07T05:29:46.432Z,11.64
2022-10-07T05:32:15.787Z,11.80
2022-10-07T05:34:46.974Z,11.93
2022-10-07T05:37:16.927Z,11.94
2022-10-07T05:39:46.191Z,11.94
2022-10-07T05:42:20.458Z,11.92
2022-10-07T05:45:04.818Z,12.11
2022-10-07T05:47:35.333Z,12.09
2022-10-07T05:50:08.955Z,12.12
2022-10-07T05:52:43.167Z,12.04
2022-10-07T05:55:12.475Z,12.04
2022-10-07T05:57:47.035Z,12.08
2022-10-07T06:00:18.763Z,12.15
2022-10-07T06:02:58.575Z,12.14
2022-10-07T06:05:32.243Z,12.06
2022-10-07T06:08:01.849Z,11.82
2022-10-07T06:10:43.934Z,11.70
2022-10-07T06:13:13.158Z,11.88
2022-10-07T06:15:44.326Z,11.98
2022-10-07T06:18:13.629Z,11.99
2022-10-07T06:20:55.145Z,12.20
2022-10-07T06:23:25.739Z,12.20
2022-10-07T06:25:57.573Z,11.97
2022-10-07T06:28:36.813Z,11.64
2022-10-07T06:31:06.931Z,11.77
2022-10-07T06:33:37.949Z,11.74
2022-10-07T06:36:12.418Z,11.91
2022-10-07T06:38:49.397Z,12.18
2022-10-07T06:41:21.712Z,12.04
2022-10-07T06:43:57.906Z,12.11
2022-10-07T06:46:29.323Z,12.44
2022-10-07T06:48:59.570Z,12.67
2022-10-07T06:51:30.796Z,12.54
2022-10-07T06:54:00.063Z,12.51
2022-10-07T06:56:35.103Z,12.54
2022-10-07T06:59:04.581Z,12.26
2022-10-07T07:01:41.225Z,12.24
2022-10-07T07:09:33.190Z,12.14
2022-10-07T07:12:04.358Z,12.17
2022-10-07T07:14:42.545Z,12.28
2022-10-07T07:17:17.439Z,12.32
2022-10-07T07:22:24.134Z,12.45
2022-10-07T07:24:58.520Z,12.54
2022-10-07T07:27:28.127Z,12.65
2022-10-07T07:30:02.830Z,12.74
2022-10-07T07:32:33.570Z,12.70
2022-10-07T07:35:04.278Z,12.67
2022-10-07T07:37:40.773Z,12.57
2022-10-07T07:40:11.726Z,12.79
2022-10-07T07:42:40.953Z,12.88
2022-10-07T07:45:17.684Z,12.66
2022-10-07T07:47:49.079Z,12.54
2022-10-07T07:50:20.496Z,12.51
2022-10-07T07:52:57.100Z,12.41
2022-10-07T07:55:26.895Z,12.22
2022-10-07T07:57:56.211Z,12.17
2022-10-07T08:00:25.455Z,12.16
2022-10-07T08:03:02.659Z,12.16
2022-10-07T08:05:33.675Z,12.21
2022-10-07T08:08:05.134Z,12.39
2022-10-07T08:10:34.924Z,12.45
2022-10-07T08:13:04.047Z,12.51
2022-10-07T08:15:33.686Z,12.63
2022-10-07T08:18:03.973Z,12.83
2022-10-07T08:20:38.662Z,13.08
2022-10-07T08:23:12.098Z,13.06
2022-10-07T08:25:46.236Z,12.98
2022-10-07T08:28:16.105Z,12.66
2022-10-07T08:30:46.195Z,12.43
2022-10-07T08:33:15.500Z,12.49
2022-10-07T08:35:44.747Z,12.56
2022-10-07T08:38:16.024Z,12.62
2022-10-07T08:40:49.432Z,12.62
2022-10-07T08:43:25.343Z,12.76
2022-10-07T08:45:55.610Z,12.99
2022-10-07T08:48:31.259Z,12.87
2022-10-07T08:51:13.673Z,12.97
2022-10-07T08:53:46.988Z,13.20
2022-10-07T08:56:19.340Z,13.29
2022-10-07T08:59:02.991Z,13.20
2022-10-07T09:01:47.058Z,13.08
2022-10-07T09:04:34.134Z,13.17
2022-10-07T09:07:06.962Z,13.17
2022-10-07T09:09:43.091Z,13.17
2022-10-07T09:12:22.497Z,13.29
2022-10-07T09:14:56.340Z,13.43
2022-10-07T09:17:34.892Z,13.48
2022-10-07T09:20:08.835Z,13.38
2022-10-07T09:22:42.362Z,13.40
2022-10-07T09:25:23.559Z,13.63
2022-10-07T09:27:54.072Z,13.71
2022-10-07T09:30:27.564Z,13.65
2022-10-07T09:35:38.295Z,13.64
2022-10-07T09:38:09.578Z,13.74
2022-10-07T09:41:07.074Z,13.91
2022-10-07T09:43:37.238Z,14.02
2022-10-07T09:46:07.795Z,13.97
2022-10-07T09:48:36.968Z,14.13
2022-10-07T09:51:18.325Z,14.13
2022-10-07T09:53:59.545Z,13.92
2022-10-07T09:56:39.527Z,13.88
2022-10-07T09:59:27.195Z,13.88
2022-10-07T10:01:59.135Z,13.84
2022-10-07T10:04:33.373Z,13.79
2022-10-07T10:09:55.774Z,13.88
2022-10-07T10:12:28.311Z,13.92
2022-10-07T10:15:05.521Z,13.72
2022-10-07T10:17:41.475Z,13.51
2022-10-07T10:20:39.053Z,13.68
2022-10-07T10:23:29.716Z,13.69
2022-10-07T10:26:34.413Z,13.58
2022-10-07T10:29:39.654Z,13.52
2022-10-07T10:32:29.149Z,13.78
2022-10-07T10:35:04.937Z,13.96
2022-10-07T10:37:57.936Z,13.91
2022-10-07T10:40:34.286Z,13.91
2022-10-07T10:43:17.100Z,13.99
2022-10-07T10:46:02.665Z,13.98
2022-10-07T10:48:39.561Z,13.93
2022-10-07T10:51:25.113Z,13.94
2022-10-07T10:54:10.313Z,14.06
2022-10-07T10:56:47.594Z,14.02
2022-10-07T10:59:33.978Z,13.99
2022-10-07T11:02:25.286Z,14.15
2022-10-07T11:04:58.834Z,14.03
2022-10-07T11:07:34.564Z,13.87
2022-10-07T11:10:08.983Z,13.71
2022-10-07T11:12:43.152Z,13.69
2022-10-07T11:15:23.382Z,13.89
2022-10-07T11:17:58.017Z,13.99
2022-10-07T11:20:32.828Z,14.08
2022-10-07T11:23:14.416Z,14.11
2022-10-07T11:25:49.038Z,14.14
2022-10-07T11:28:23.903Z,14.06
2022-10-07T11:30:59.930Z,13.88
2022-10-07T11:33:42.768Z,13.89
2022-10-07T11:36:17.726Z,13.79
2022-10-07T11:38:48.651Z,13.85
2022-10-07T11:41:23.796Z,13.88
2022-10-07T11:44:01.632Z,13.88
2022-10-07T11:46:36.761Z,13.89
2022-10-07T11:49:14.323Z,13.83
2022-10-07T11:51:54.206Z,13.86
2022-10-07T11:54:37.917Z,13.96
2022-10-07T11:57:07.269Z,13.80
2022-10-07T11:59:45.706Z,13.77
2022-10-07T12:02:39.636Z,13.65
2022-10-07T12:05:46.203Z,13.56
2022-10-07T12:08:33.273Z,13.56
2022-10-07T12:11:35.168Z,13.59
2022-10-07T12:14:31.720Z,13.42
2022-10-07T12:17:30.924Z,13.61
2022-10-07T12:20:35.009Z,13.62
2022-10-07T12:23:45.395Z,13.64
2022-10-07T12:26:49.362Z,13.73
2022-10-07T12:29:35.655Z,13.82
2022-10-07T12:32:44.677Z,13.88
2022-10-07T12:35:43.849Z,13.81
2022-10-07T12:38:20.177Z,13.73
2022-10-07T12:40:55.759Z,13.74
2022-10-07T12:43:42.879Z,13.72
2022-10-07T12:46:16.506Z,13.60
2022-10-07T12:56:30.838Z,13.35
2022-10-07T12:59:51.689Z,13.31
2022-10-07T13:02:53.726Z,13.17
2022-10-07T13:05:49.480Z,13.20
2022-10-07T13:08:48.345Z,13.16
2022-10-07T13:11:48.061Z,13.23
2022-10-07T13:14:24.597Z,13.01
2022-10-07T13:17:01.145Z,13.12
2022-10-07T13:19:36.794Z,13.09
2022-10-07T13:22:15.738Z,13.11
2022-10-07T13:24:49.800Z,13.11
2022-10-07T13:27:26.437Z,13.10
2022-10-07T13:29:56.397Z,13.10
2022-10-07T13:32:29.722Z,13.08
2022-10-07T13:35:01.160Z,13.03
2022-10-07T13:37:38.653Z,12.96
2022-10-07T13:40:23.640Z,12.94
2022-10-07T13:42:58.671Z,12.91
2022-10-07T13:45:29.148Z,12.87
2022-10-07T13:47:58.882Z,12.87
2022-10-07T13:50:30.923Z,12.87
2022-10-07T13:53:01.079Z,12.79
2022-10-07T13:55:31.591Z,12.78
2022-10-07T13:58:06.205Z,12.71
2022-10-07T14:00:42.946Z,12.72
2022-10-07T14:03:15.841Z,12.76
2022-10-07T14:05:51.511Z,12.69
2022-10-07T14:08:22.963Z,12.59
2022-10-07T14:10:55.883Z,12.46
2022-10-07T14:13:28.515Z,12.43
2022-10-07T14:15:59.376Z,12.34
2022-10-07T14:18:30.879Z,12.37
2022-10-07T14:21:16.387Z,12.30
2022-10-07T14:23:46.726Z,12.38
2022-10-07T14:26:17.255Z,12.30
2022-10-07T14:28:48.370Z,12.11
2022-10-07T14:31:35.598Z,12.17
2022-10-07T14:34:28.046Z,12.18
2022-10-07T14:37:09.808Z,11.96
2022-10-07T14:39:40.225Z,12.11
2022-10-07T14:42:14.118Z,12.01
2022-10-07T14:44:57.136Z,11.92
2022-10-07T14:47:27.830Z,12.02
2022-10-07T14:49:59.035Z,12.00
2022-10-07T14:52:39.638Z,11.97
2022-10-07T14:55:23.666Z,11.96
2022-10-07T14:57:53.267Z,11.92
2022-10-07T15:00:27.220Z,11.94
2022-10-07T15:03:02.506Z,11.97
2022-10-07T15:05:39.732Z,11.89
2022-10-07T15:08:10.426Z,11.88
2022-10-07T15:10:42.213Z,11.90
2022-10-07T15:13:13.430Z,11.87
2022-10-07T15:15:47.042Z,11.80
2022-10-07T15:18:16.339Z,11.68
2022-10-07T15:20:45.450Z,11.62
2022-10-07T15:23:15.556Z,11.57
2022-10-07T15:25:45.444Z,11.61
2022-10-07T15:28:15.649Z,11.61
2022-10-07T15:30:46.998Z,11.60
2022-10-07T15:33:16.461Z,11.53
2022-10-07T15:35:45.931Z,11.37
2022-10-07T15:38:15.217Z,10.92
2022-10-07T15:40:55.819Z,11.06
2022-10-07T15:43:25.608Z,10.88
2022-10-07T15:45:58.537Z,10.77
2022-10-07T15:48:28.425Z,10.74
2022-10-07T15:51:00.104Z,11.03
2022-10-07T15:53:29.877Z,10.96
2022-10-07T15:56:00.065Z,11.01
2022-10-07T15:58:32.189Z,10.84
2022-10-07T16:01:10.868Z,10.83
2022-10-07T16:03:42.518Z,10.73
2022-10-07T16:06:15.449Z,10.58
2022-10-07T16:08:44.889Z,10.64
2022-10-07T16:11:14.637Z,10.64
2022-10-07T16:13:46.589Z,10.69
2022-10-07T16:16:19.675Z,10.82
2022-10-07T16:18:50.331Z,10.81
2022-10-07T16:21:22.871Z,10.82
2022-10-07T16:23:54.298Z,10.73
2022-10-07T16:26:26.456Z,10.65
2022-10-07T16:29:15.296Z,10.48
2022-10-07T16:31:47.538Z,10.40
2022-10-07T16:34:18.801Z,10.29
2022-10-07T16:36:49.729Z,10.25
2022-10-07T16:39:24.155Z,10.23
2022-10-07T16:41:53.750Z,10.09
2022-10-07T16:44:34.969Z,10.19
2022-10-07T16:47:06.141Z,10.08
2022-10-07T16:49:36.064Z,10.00
2022-10-07T16:52:06.061Z,9.83
2022-10-07T16:54:35.261Z,9.92
2022-10-07T16:57:04.569Z,9.93
2022-10-07T16:59:34.035Z,9.97
2022-10-07T17:02:06.121Z,9.97
2022-10-07T17:04:35.839Z,9.96
2022-10-07T17:07:05.399Z,9.95
2022-10-07T17:09:34.600Z,9.86
2022-10-07T17:12:04.135Z,9.92
2022-10-07T17:14:38.178Z,9.91
2022-10-07T17:17:09.497Z,9.89
2022-10-07T17:19:39.085Z,9.88
2022-10-07T17:22:09.209Z,9.90
2022-10-07T17:24:38.915Z,9.86
2022-10-07T17:27:13.573Z,9.91
2022-10-07T17:29:42.923Z,9.74
2022-10-07T17:32:14.208Z,9.76
2022-10-07T17:34:45.558Z,9.76
2022-10-07T17:37:15.167Z,9.67
2022-10-07T17:39:44.424Z,9.72
2022-10-07T17:42:18.828Z,9.78
2022-10-07T17:44:48.261Z,9.66
2022-10-07T17:47:19.645Z,9.73
2022-10-07T17:49:49.037Z,9.69
2022-10-07T17:52:18.370Z,9.66
2022-10-07T17:54:49.703Z,9.62
2022-10-07T17:57:20.974Z,9.59
2022-10-07T17:59:53.074Z,9.55
2022-10-07T18:02:40.605Z,9.45
2022-10-07T18:05:10.380Z,9.56
2022-10-07T18:07:39.510Z,9.55
2022-10-07T18:10:09.607Z,9.64
2022-10-07T18:12:51.789Z,9.59
2022-10-07T18:15:23.908Z,9.62
2022-10-07T18:18:06.150Z,9.57
2022-10-07T18:20:41.104Z,9.56
2022-10-07T18:23:10.474Z,9.56
2022-10-07T18:25:40.678Z,9.54
2022-10-07T18:28:10.134Z,9.39
2022-10-07T18:30:39.520Z,9.54
2022-10-07T18:33:10.806Z,9.38
2022-10-07T18:35:40.382Z,9.44
2022-10-07T18:38:09.423Z,9.38
2022-10-07T18:40:38.674Z,9.40
2022-10-07T18:43:08.299Z,9.33
2022-10-07T18:45:37.792Z,9.24
2022-10-07T18:48:07.176Z,9.24
2022-10-07T18:50:38.264Z,9.32
2022-10-07T18:53:07.502Z,9.28
2022-10-07T18:55:40.849Z,9.25
2022-10-07T18:58:11.353Z,9.19
2022-10-07T19:00:43.036Z,9.14
2022-10-07T19:03:12.486Z,9.15
2022-10-07T19:05:48.922Z,9.06
2022-10-07T19:08:18.873Z,9.15
2022-10-07T19:10:48.001Z,9.07
2022-10-07T19:13:35.592Z,9.09
2022-10-07T19:16:05.616Z,9.00
2022-10-07T19:18:41.789Z,9.05
2022-10-07T19:21:14.751Z,9.04
2022-10-07T19:23:44.541Z,9.00
2022-10-07T19:26:21.470Z,9.02
2022-10-07T19:28:51.941Z,9.02
2022-10-07T19:31:24.867Z,8.86
2022-10-07T19:34:01.909Z,8.94
2022-10-07T19:36:34.963Z,8.95
2022-10-07T19:39:05.760Z,8.90
2022-10-07T19:41:36.792Z,8.89
2022-10-07T19:44:07.271Z,8.88
2022-10-07T19:46:37.446Z,8.86
2022-10-07T19:49:08.910Z,8.80
2022-10-07T19:51:41.738Z,8.88
2022-10-07T19:54:17.567Z,8.66
2022-10-07T19:56:46.971Z,8.69
2022-10-07T19:59:16.635Z,8.84
2022-10-07T20:01:49.262Z,8.80
2022-10-07T20:04:20.619Z,8.78
2022-10-07T20:06:51.882Z,8.80
2022-10-07T20:09:22.411Z,8.79
2022-10-07T20:11:51.630Z,8.80
2022-10-07T20:14:32.702Z,8.63
2022-10-07T20:17:06.956Z,8.63
2022-10-07T20:19:36.124Z,8.62
2022-10-07T20:22:07.248Z,8.59
2022-10-07T20:24:36.551Z,8.56
2022-10-07T20:27:06.142Z,8.46
2022-10-07T20:29:55.350Z,8.48
2022-10-07T20:32:24.679Z,8.51
2022-10-07T20:34:54.601Z,8.47
2022-10-07T20:37:25.919Z,8.37
2022-10-07T20:40:08.163Z,8.42
2022-10-07T20:42:46.877Z,8.51
2022-10-07T20:45:17.038Z,8.43
2022-10-07T20:47:46.938Z,8.52
2022-10-07T20:50:16.111Z,8.49
2022-10-07T20:52:47.434Z,8.42
2022-10-07T20:55:22.020Z,8.33
2022-10-07T20:57:51.280Z,8.40
2022-10-07T21:00:20.638Z,8.33
2022-10-07T21:02:50.388Z,8.29
2022-10-07T21:05:20.306Z,8.32
2022-10-07T21:07:54.685Z,8.35
2022-10-07T21:10:24.156Z,8.30
2022-10-07T21:12:53.528Z,8.40
2022-10-07T21:15:22.752Z,8.37
2022-10-07T21:17:51.911Z,8.38
2022-10-07T21:20:21.211Z,8.36
2022-10-07T21:22:53.790Z,8.28
2022-10-07T21:25:23.023Z,8.33
2022-10-07T21:27:52.089Z,8.31
2022-10-07T21:30:21.234Z,8.33
2022-10-07T21:32:50.348Z,8.36
2022-10-07T21:35:19.513Z,8.35
2022-10-07T21:37:53.697Z,8.33
2022-10-07T21:40:25.044Z,8.31
2022-10-07T21:42:54.374Z,8.27
2022-10-07T21:45:23.523Z,8.25
2022-10-07T21:47:58.696Z,8.23
2022-10-07T21:50:27.830Z,8.21
2022-10-07T21:52:56.862Z,8.19
2022-10-07T21:55:35.966Z,8.17
2022-10-07T21:58:11.528Z,8.15
2022-10-07T22:00:46.535Z,8.11
2022-10-07T22:03:16.479Z,8.12
2022-10-07T22:05:45.507Z,8.12
2022-10-07T22:08:29.755Z,8.00
2022-10-07T22:11:04.062Z,8.04
2022-10-07T22:13:40.825Z,7.97
2022-10-07T22:16:14.269Z,8.04
2022-10-07T22:18:44.994Z,8.01
2022-10-07T22:21:15.813Z,8.00
2022-10-07T22:23:45.981Z,8.02
2022-10-07T22:26:29.446Z,8.01
2022-10-07T22:28:58.935Z,7.98
2022-10-07T22:31:29.734Z,7.96
2022-10-07T22:34:00.935Z,7.96
2022-10-07T22:36:31.090Z,7.94
2022-10-07T22:39:01.078Z,7.84
2022-10-07T22:41:32.471Z,7.88
2022-10-07T22:44:01.877Z,7.96
2022-10-07T22:46:36.116Z,7.86
2022-10-07T22:49:05.365Z,7.85
2022-10-07T22:51:34.457Z,7.84
2022-10-07T22:56:47.161Z,7.69
2022-10-07T22:59:16.546Z,7.67
2022-10-07T23:01:45.656Z,7.81
2022-10-07T23:04:14.664Z,7.78
2022-10-07T23:06:43.602Z,7.76
2022-10-07T23:09:13.111Z,7.74
2022-10-07T23:11:42.269Z,7.69
2022-10-07T23:14:13.674Z,7.71
2022-10-07T23:16:55.854Z,7.70
2022-10-07T23:19:25.075Z,7.67
2022-10-07T23:21:54.623Z,7.59
2022-10-07T23:24:23.589Z,7.66
2022-10-07T23:27:02.903Z,7.69
2022-10-07T23:29:34.697Z,7.68
2022-10-07T23:32:03.683Z,7.72
2022-10-07T23:34:33.157Z,7.61
2022-10-07T23:37:02.430Z,7.57
2022-10-07T23:39:31.527Z,7.44
2022-10-07T23:42:05.885Z,7.39
2022-10-07T23:44:37.994Z,7.45
2022-10-07T23:47:07.652Z,7.47
2022-10-07T23:49:36.770Z,7.44
2022-10-07T23:54:40.222Z,7.40
2022-10-07T23:57:09.328Z,7.39
2022-10-07T23:59:41.858Z,7.39
